Time;durP1;ratioP1;P1;durP2;ratioP2;P2;SDS_P1;SDS_P2;PMS_P1;PMS_P2;Temp;Humidity;BMP_temperature;BMP_pressure;BME280_temperature;BME280_humidity;BME280_pressure;Samples;Min_cycle;Max_cycle;Signal;HPM_P1;HPM_P2
2021/08/20 00:02:05;;;;;;;4.25;1.88;;;16.90;81.60;;;;;;5158483;27;20022;-73
2021/08/20 00:04:31;;;;;;;2.13;1.58;;;16.90;81.40;;;;;;5156982;27;20022;-73
2021/08/20 00:06:57;;;;;;;1.70;1.52;;;16.90;81.40;;;;;;5156888;27;20027;-73
2021/08/20 00:09:22;;;;;;;2.28;1.60;;;16.90;81.50;;;;;;5156784;27;20027;-73
2021/08/20 00:11:48;;;;;;;2.00;1.73;;;16.90;81.40;;;;;;5156751;27;20049;-73
2021/08/20 00:14:17;;;;;;;1.80;1.60;;;16.90;81.50;;;;;;5156658;27;20471;-73
2021/08/20 00:16:42;;;;;;;3.63;1.60;;;16.90;81.50;;;;;;5156594;27;20029;-73
2021/08/20 00:19:08;;;;;;;2.65;1.40;;;17.00;81.40;;;;;;5156650;27;20102;-73
2021/08/20 00:21:35;;;;;;;3.28;1.27;;;17.00;81.10;;;;;;5156752;27;20015;-74
2021/08/20 00:24:01;;;;;;;4.20;1.83;;;16.90;81.30;;;;;;5156634;27;20026;-73
2021/08/20 00:26:27;;;;;;;2.60;1.55;;;16.90;82.00;;;;;;5156419;27;20367;-73
2021/08/20 00:28:53;;;;;;;3.22;1.25;;;16.80;81.80;;;;;;5156420;27;20026;-73
2021/08/20 00:31:19;;;;;;;2.03;1.70;;;16.80;81.80;;;;;;5156412;27;20021;-74
2021/08/20 00:33:44;;;;;;;2.28;1.60;;;16.80;82.70;;;;;;5155854;27;20023;-73
2021/08/20 00:36:10;;;;;;;2.45;1.80;;;16.80;81.90;;;;;;5155765;27;20057;-73
2021/08/20 00:38:38;;;;;;;2.45;1.75;;;16.80;82.00;;;;;;5156089;27;20037;-73
2021/08/20 00:41:10;;;;;;;2.10;1.50;;;16.80;82.40;;;;;;5156200;27;20022;-73
2021/08/20 00:43:37;;;;;;;3.50;1.70;;;16.90;82.80;;;;;;5155915;27;20034;-74
2021/08/20 00:46:03;;;;;;;2.88;1.33;;;16.90;83.00;;;;;;5156138;27;20022;-73
2021/08/20 00:48:29;;;;;;;3.15;1.45;;;16.90;83.10;;;;;;5156103;27;20023;-73
2021/08/20 00:51:22;;;;;;;2.55;1.75;;;16.90;83.30;;;;;;5156139;27;20510;-73
2021/08/20 00:53:48;;;;;;;2.50;1.80;;;16.90;83.90;;;;;;5155329;27;20039;-73
2021/08/20 00:56:14;;;;;;;2.10;1.90;;;16.90;83.90;;;;;;5155951;27;20025;-73
2021/08/20 00:58:40;;;;;;;3.33;1.75;;;16.80;84.20;;;;;;5155820;27;20368;-73
2021/08/20 01:01:06;;;;;;;2.30;1.50;;;16.80;84.30;;;;;;5155895;27;20029;-73
2021/08/20 01:03:32;;;;;;;2.33;1.90;;;16.90;84.20;;;;;;5155785;27;20052;-73
2021/08/20 01:05:59;;;;;;;3.00;1.65;;;16.90;84.00;;;;;;5155869;27;20029;-73
2021/08/20 01:08:25;;;;;;;1.52;1.40;;;17.00;84.00;;;;;;5137143;27;20143;-73
2021/08/20 01:10:51;;;;;;;2.08;1.60;;;17.00;83.60;;;;;;5155680;27;20074;-73
2021/08/20 01:13:20;;;;;;;1.58;1.48;;;17.10;83.40;;;;;;5155515;27;20047;-73
2021/08/20 01:15:46;;;;;;;2.38;1.70;;;17.10;83.20;;;;;;5161116;27;20445;-73
2021/08/20 01:18:26;;;;;;;2.25;1.50;;;17.20;83.10;;;;;;5158887;27;20041;-74
2021/08/20 01:20:53;;;;;;;3.78;1.60;;;17.20;82.90;;;;;;5156072;27;20041;-73
2021/08/20 01:23:21;;;;;;;2.13;1.67;;;17.20;82.90;;;;;;5155644;27;20470;-74
2021/08/20 01:25:47;;;;;;;5.28;1.67;;;17.20;83.00;;;;;;5155750;27;20053;-74
2021/08/20 01:28:13;;;;;;;2.60;1.52;;;17.20;82.90;;;;;;5155374;27;20023;-74
2021/08/20 01:30:39;;;;;;;3.10;1.73;;;17.20;82.80;;;;;;5155367;27;20031;-73
2021/08/20 01:33:05;;;;;;;1.92;1.70;;;17.20;82.80;;;;;;5155309;27;20550;-74
2021/08/20 01:35:33;;;;;;;1.58;1.33;;;17.10;82.70;;;;;;5155310;27;20022;-74
2021/08/20 01:37:58;;;;;;;3.90;1.45;;;17.20;82.70;;;;;;5155122;27;20029;-74
2021/08/20 01:40:24;;;;;;;2.80;1.50;;;17.10;82.70;;;;;;5155179;27;20019;-73
2021/08/20 01:42:49;;;;;;;2.53;1.63;;;17.10;82.70;;;;;;5154993;27;20027;-73
2021/08/20 01:45:15;;;;;;;2.55;1.50;;;17.10;82.80;;;;;;5154983;27;20097;-72
2021/08/20 01:47:41;;;;;;;1.92;1.70;;;17.10;82.80;;;;;;5154711;27;20019;-73
2021/08/20 01:50:07;;;;;;;2.63;1.58;;;17.10;82.70;;;;;;5154685;27;20565;-74
2021/08/20 01:52:34;;;;;;;2.33;1.50;;;17.10;82.80;;;;;;5154854;27;20078;-73
2021/08/20 01:55:00;;;;;;;1.58;1.30;;;17.10;82.70;;;;;;5154969;27;20481;-73
2021/08/20 01:57:25;;;;;;;2.10;1.75;;;17.10;82.60;;;;;;5154860;27;20031;-73
2021/08/20 01:59:51;;;;;;;1.88;1.60;;;17.00;82.70;;;;;;5154774;27;20025;-74
2021/08/20 02:02:16;;;;;;;2.45;1.60;;;17.10;82.70;;;;;;5135716;27;20023;-78
2021/08/20 02:04:42;;;;;;;1.70;1.40;;;17.10;82.60;;;;;;5154772;27;20018;-74
2021/08/20 02:07:07;;;;;;;3.53;1.67;;;17.00;82.50;;;;;;5154712;27;20026;-74
2021/08/20 02:09:33;;;;;;;3.35;1.50;;;17.00;82.60;;;;;;5154669;27;20019;-73
2021/08/20 02:11:59;;;;;;;1.38;1.27;;;17.00;82.50;;;;;;5154675;27;20083;-73
2021/08/20 02:14:24;;;;;;;2.83;1.85;;;17.10;82.60;;;;;;5154685;27;20046;-73
2021/08/20 02:16:50;;;;;;;1.95;1.60;;;17.10;82.40;;;;;;5154680;27;20382;-73
2021/08/20 02:19:15;;;;;;;1.88;1.30;;;17.10;82.40;;;;;;5154415;27;20027;-73
2021/08/20 02:21:41;;;;;;;6.85;1.73;;;17.00;82.10;;;;;;5154548;27;20022;-74
2021/08/20 02:24:07;;;;;;;2.33;1.42;;;17.10;82.10;;;;;;5154736;27;20026;-77
2021/08/20 02:26:32;;;;;;;1.63;1.30;;;17.00;82.00;;;;;;5154719;27;20023;-78
2021/08/20 02:28:58;;;;;;;3.80;1.60;;;17.10;82.10;;;;;;5154682;27;20014;-78
2021/08/20 02:31:23;;;;;;;2.55;1.70;;;17.10;82.00;;;;;;5136039;27;20034;-78
2021/08/20 02:33:49;;;;;;;3.05;1.40;;;17.10;82.00;;;;;;5154880;27;20026;-77
2021/08/20 02:36:15;;;;;;;3.50;1.73;;;17.10;82.00;;;;;;5154849;27;20063;-78
2021/08/20 02:38:41;;;;;;;3.33;1.90;;;17.10;82.00;;;;;;5154375;27;20035;-76
2021/08/20 02:41:06;;;;;;;2.58;1.52;;;17.00;82.00;;;;;;5154724;27;20061;-78
2021/08/20 02:43:32;;;;;;;1.80;1.55;;;17.00;82.10;;;;;;5154856;27;20054;-77
2021/08/20 02:45:58;;;;;;;2.28;1.60;;;17.00;82.30;;;;;;5155238;27;20046;-76
2021/08/20 02:48:24;;;;;;;3.80;1.75;;;16.90;82.40;;;;;;5156342;27;20015;-77
2021/08/20 02:50:49;;;;;;;1.83;1.30;;;16.80;82.40;;;;;;5154925;27;20054;-78
2021/08/20 02:53:16;;;;;;;2.03;1.60;;;16.80;82.40;;;;;;5161064;27;20120;-75
2021/08/20 02:55:41;;;;;;;1.95;1.40;;;16.90;82.70;;;;;;5136423;27;20351;-76
2021/08/20 02:58:07;;;;;;;1.95;1.40;;;16.90;82.70;;;;;;5167375;27;20062;-77
2021/08/20 03:00:33;;;;;;;3.67;2.00;;;16.90;82.60;;;;;;5163328;27;20111;-78
2021/08/20 03:02:59;;;;;;;2.05;1.40;;;16.90;82.60;;;;;;5149540;27;20033;-75
2021/08/20 03:05:24;;;;;;;2.47;1.70;;;16.90;82.60;;;;;;5179308;27;20044;-79
2021/08/20 03:07:50;;;;;;;3.20;1.88;;;16.90;82.70;;;;;;5164237;27;20489;-79
2021/08/20 03:10:15;;;;;;;3.95;1.92;;;17.00;82.80;;;;;;5163522;27;20034;-78
2021/08/20 03:12:41;;;;;;;2.35;1.60;;;16.90;83.00;;;;;;5154057;27;20412;-78
2021/08/20 03:15:07;;;;;;;1.65;1.50;;;16.90;83.10;;;;;;5163857;27;20046;-78
2021/08/20 03:17:33;;;;;;;2.45;1.50;;;17.00;83.20;;;;;;5167321;27;20064;-76
2021/08/20 03:19:59;;;;;;;2.20;1.52;;;17.00;83.20;;;;;;5160502;27;20019;-76
2021/08/20 03:22:24;;;;;;;1.83;1.50;;;16.90;83.20;;;;;;5166221;27;20057;-73
2021/08/20 03:24:50;;;;;;;2.70;1.67;;;17.00;83.20;;;;;;5142224;27;20015;-75
2021/08/20 03:27:16;;;;;;;5.28;1.58;;;17.00;83.30;;;;;;5158534;27;20025;-75
2021/08/20 03:29:41;;;;;;;3.33;1.50;;;16.90;83.30;;;;;;5158474;27;20027;-78
2021/08/20 03:32:07;;;;;;;3.05;1.50;;;16.90;83.20;;;;;;5158228;27;20102;-75
2021/08/20 03:34:33;;;;;;;2.35;1.50;;;16.90;83.20;;;;;;5158369;27;20486;-75
2021/08/20 03:36:58;;;;;;;2.40;1.58;;;16.90;83.40;;;;;;5157950;27;20023;-75
2021/08/20 03:39:24;;;;;;;4.03;2.03;;;16.80;83.40;;;;;;5158879;27;20041;-76
2021/08/20 03:41:50;;;;;;;1.83;1.55;;;16.80;83.60;;;;;;5140719;27;20023;-75
2021/08/20 03:44:15;;;;;;;2.45;1.80;;;16.80;83.50;;;;;;5157652;27;20467;-76
2021/08/20 03:46:41;;;;;;;1.60;1.50;;;16.80;83.60;;;;;;5157087;27;20101;-77
2021/08/20 03:49:06;;;;;;;4.05;1.67;;;16.80;83.70;;;;;;5157171;27;20031;-76
2021/08/20 03:51:32;;;;;;;3.20;1.52;;;16.80;83.70;;;;;;5157118;27;20078;-75
2021/08/20 03:53:58;;;;;;;3.40;1.80;;;16.70;83.80;;;;;;5138640;27;20026;-77
2021/08/20 03:56:24;;;;;;;3.05;1.88;;;16.70;84.00;;;;;;5157298;27;20383;-75
2021/08/20 03:58:50;;;;;;;2.63;1.67;;;16.70;84.20;;;;;;5157004;27;20065;-76
2021/08/20 04:01:15;;;;;;;1.67;1.38;;;16.80;84.20;;;;;;5156983;27;20019;-79
2021/08/20 04:03:41;;;;;;;1.50;1.40;;;16.70;84.00;;;;;;5157175;27;20034;-78
2021/08/20 04:06:10;;;;;;;2.58;1.40;;;16.70;84.10;;;;;;5140354;27;20019;-77
2021/08/20 04:08:36;;;;;;;2.08;1.70;;;16.70;84.30;;;;;;5170863;27;20040;-75
2021/08/20 04:11:02;;;;;;;1.80;1.52;;;16.70;84.10;;;;;;5157520;27;20026;-78
2021/08/20 04:13:28;;;;;;;2.13;1.45;;;16.70;84.20;;;;;;5156982;27;20541;-80
2021/08/20 04:15:53;;;;;;;1.98;1.65;;;16.70;84.10;;;;;;5156980;27;20054;-78
2021/08/20 04:18:19;;;;;;;3.15;1.58;;;16.70;84.10;;;;;;5156638;27;20037;-73
2021/08/20 04:20:45;;;;;;;3.75;1.73;;;16.70;84.20;;;;;;5138172;27;20026;-79
2021/08/20 04:23:11;;;;;;;3.15;1.48;;;16.60;84.40;;;;;;5156269;27;20044;-79
2021/08/20 04:25:36;;;;;;;1.58;1.20;;;16.70;84.60;;;;;;5156810;27;20019;-79
2021/08/20 04:28:02;;;;;;;2.08;1.70;;;16.60;84.40;;;;;;5156656;27;20079;-78
2021/08/20 04:30:29;;;;;;;2.22;1.75;;;16.60;84.40;;;;;;5156566;27;20018;-77
2021/08/20 04:32:56;;;;;;;2.10;1.70;;;16.70;84.40;;;;;;5156471;27;20468;-74
2021/08/20 04:35:24;;;;;;;1.50;1.40;;;16.60;84.50;;;;;;5156533;27;20463;-74
2021/08/20 04:37:50;;;;;;;3.70;1.90;;;16.60;84.40;;;;;;5156197;27;20038;-75
2021/08/20 04:40:15;;;;;;;4.15;1.83;;;16.50;84.50;;;;;;5156387;27;20023;-75
2021/08/20 04:42:41;;;;;;;3.88;2.00;;;16.50;84.60;;;;;;5156338;27;20358;-75
2021/08/20 04:45:07;;;;;;;3.00;1.95;;;16.50;84.70;;;;;;5156252;27;20473;-78
2021/08/20 04:47:32;;;;;;;3.22;2.00;;;16.50;84.70;;;;;;5156042;27;20029;-75
2021/08/20 04:49:59;;;;;;;3.22;2.17;;;16.40;84.70;;;;;;5156059;27;20022;-75
2021/08/20 04:52:25;;;;;;;2.38;2.03;;;16.40;84.70;;;;;;5156440;27;20046;-74
2021/08/20 04:54:50;;;;;;;2.03;1.70;;;16.40;84.70;;;;;;5156103;27;20032;-76
2021/08/20 04:57:16;;;;;;;1.70;1.60;;;16.40;84.60;;;;;;5156787;27;20090;-74
2021/08/20 04:59:41;;;;;;;2.33;1.70;;;16.40;84.50;;;;;;5155997;27;20026;-78
2021/08/20 05:02:07;;;;;;;2.65;2.00;;;16.50;84.50;;;;;;5156103;27;20019;-75
2021/08/20 05:04:35;;;;;;;4.03;1.77;;;16.50;84.60;;;;;;5155909;27;20030;-77
2021/08/20 05:07:02;;;;;;;1.80;1.63;;;16.40;84.40;;;;;;5155805;27;20027;-75
2021/08/20 05:09:27;;;;;;;3.75;1.90;;;16.50;84.50;;;;;;5155650;27;20023;-74
2021/08/20 05:11:54;;;;;;;4.00;2.17;;;16.50;84.40;;;;;;5155743;27;20026;-76
2021/08/20 05:14:19;;;;;;;3.00;1.80;;;16.60;84.30;;;;;;5155848;27;20153;-76
2021/08/20 05:16:48;;;;;;;4.38;1.83;;;16.60;84.20;;;;;;5155621;27;20046;-77
2021/08/20 05:19:16;;;;;;;4.28;1.70;;;16.70;83.80;;;;;;5155492;27;20026;-79
2021/08/20 05:21:41;;;;;;;3.83;1.73;;;16.60;83.40;;;;;;5155588;27;20019;-77
2021/08/20 05:24:07;;;;;;;3.78;1.70;;;16.70;83.60;;;;;;5154474;27;20033;-75
2021/08/20 05:26:33;;;;;;;2.92;2.28;;;16.60;83.40;;;;;;5155279;27;20041;-77
2021/08/20 05:28:58;;;;;;;4.40;1.63;;;16.60;83.50;;;;;;5155298;27;20058;-79
2021/08/20 05:31:24;;;;;;;3.40;2.00;;;16.60;83.70;;;;;;5155091;27;20023;-79
2021/08/20 05:33:49;;;;;;;2.90;2.22;;;16.60;84.50;;;;;;5155455;27;20097;-78
2021/08/20 05:36:15;;;;;;;2.45;1.75;;;16.70;83.60;;;;;;5155224;27;20027;-77
2021/08/20 05:38:40;;;;;;;3.72;1.65;;;16.70;83.20;;;;;;5155211;27;20042;-76
2021/08/20 05:41:06;;;;;;;2.78;1.88;;;16.80;83.10;;;;;;5154980;27;20026;-74
2021/08/20 05:43:32;;;;;;;2.55;1.75;;;16.80;83.80;;;;;;5155139;27;20079;-77
2021/08/20 05:45:58;;;;;;;3.85;2.25;;;16.90;82.80;;;;;;5154947;27;20448;-75
2021/08/20 05:48:23;;;;;;;8.75;2.42;;;17.00;82.50;;;;;;5154888;27;20033;-77
2021/08/20 05:50:49;;;;;;;2.92;2.05;;;17.00;82.30;;;;;;5154938;27;20026;-77
2021/08/20 05:53:15;;;;;;;2.85;2.13;;;17.10;82.20;;;;;;5154710;27;20047;-76
2021/08/20 05:55:40;;;;;;;3.80;1.80;;;17.20;81.90;;;;;;5154757;27;20054;-75
2021/08/20 05:58:06;;;;;;;4.65;2.03;;;17.30;81.60;;;;;;5154455;27;20035;-75
2021/08/20 06:00:33;;;;;;;3.83;1.95;;;17.40;81.10;;;;;;5154472;27;20022;-75
2021/08/20 06:02:58;;;;;;;3.17;1.95;;;17.40;80.80;;;;;;5153619;27;20015;-74
2021/08/20 06:05:24;;;;;;;2.13;1.80;;;17.50;80.50;;;;;;5154042;27;20443;-78
2021/08/20 06:07:49;;;;;;;3.53;1.83;;;17.60;80.30;;;;;;5154446;27;20083;-74
2021/08/20 06:10:17;;;;;;;2.97;2.30;;;17.60;79.70;;;;;;5154646;27;20057;-76
2021/08/20 06:12:42;;;;;;;3.95;2.20;;;17.60;79.50;;;;;;5154519;27;20118;-78
2021/08/20 06:15:08;;;;;;;2.85;2.20;;;17.60;79.20;;;;;;5154588;27;20054;-76
2021/08/20 06:17:34;;;;;;;5.72;2.00;;;17.60;79.40;;;;;;5154525;27;20035;-77
2021/08/20 06:20:00;;;;;;;3.47;2.05;;;17.60;79.50;;;;;;5154492;27;20382;-78
2021/08/20 06:22:25;;;;;;;3.65;2.05;;;17.70;79.30;;;;;;5154005;27;20031;-76
2021/08/20 06:24:51;;;;;;;3.25;2.38;;;17.80;79.10;;;;;;5135705;27;20050;-78
2021/08/20 06:27:16;;;;;;;3.38;1.98;;;17.80;79.00;;;;;;5154475;27;20022;-78
2021/08/20 06:29:42;;;;;;;3.92;1.98;;;17.90;78.90;;;;;;5154573;27;20463;-78
2021/08/20 06:32:08;;;;;;;2.65;1.90;;;17.90;79.10;;;;;;5154469;27;20347;-77
2021/08/20 06:34:34;;;;;;;4.28;1.90;;;18.00;78.60;;;;;;5155446;27;20038;-78
2021/08/20 06:36:59;;;;;;;2.58;2.10;;;18.00;78.90;;;;;;5158612;27;20033;-77
2021/08/20 06:39:25;;;;;;;3.65;1.98;;;18.00;78.30;;;;;;5158378;27;20034;-77
2021/08/20 06:41:51;;;;;;;3.13;2.15;;;18.00;78.60;;;;;;5139833;27;20098;-75
2021/08/20 06:44:16;;;;;;;4.13;2.42;;;18.00;78.80;;;;;;5158463;27;20167;-77
2021/08/20 06:46:42;;;;;;;3.35;1.80;;;18.00;78.80;;;;;;5167955;27;20019;-75
2021/08/20 06:49:08;;;;;;;2.53;2.03;;;18.10;78.90;;;;;;5172819;27;20026;-77
2021/08/20 06:51:34;;;;;;;2.95;2.22;;;18.20;78.70;;;;;;5158192;27;20072;-73
2021/08/20 06:54:00;;;;;;;4.82;2.78;;;18.30;78.30;;;;;;5158411;27;20023;-74
2021/08/20 06:56:25;;;;;;;5.28;2.60;;;18.50;77.80;;;;;;5158316;27;20498;-73
2021/08/20 06:58:51;;;;;;;3.95;1.83;;;18.50;77.00;;;;;;5158004;27;20093;-75
2021/08/20 07:01:16;;;;;;;3.03;2.08;;;18.70;76.40;;;;;;5139327;27;20022;-73
2021/08/20 07:03:42;;;;;;;3.20;2.03;;;18.80;76.20;;;;;;5158089;27;20026;-73
2021/08/20 07:06:08;;;;;;;3.08;1.77;;;18.90;75.20;;;;;;5157781;27;20019;-73
2021/08/20 07:08:33;;;;;;;2.38;2.15;;;19.00;74.70;;;;;;5157711;27;20382;-74
2021/08/20 07:10:59;;;;;;;5.85;2.55;;;19.10;73.50;;;;;;5157706;27;20075;-75
2021/08/20 07:13:25;;;;;;;2.42;1.95;;;18.90;72.10;;;;;;5157812;27;20019;-74
2021/08/20 07:15:50;;;;;;;4.03;2.10;;;19.00;73.00;;;;;;5157905;27;20018;-74
2021/08/20 07:18:16;;;;;;;2.50;2.10;;;19.20;72.50;;;;;;5157678;27;20126;-73
2021/08/20 07:20:42;;;;;;;3.42;2.03;;;19.30;71.20;;;;;;5157792;27;20029;-73
2021/08/20 07:23:07;;;;;;;4.32;2.45;;;19.50;70.40;;;;;;5157505;27;20055;-73
2021/08/20 07:25:33;;;;;;;4.38;2.38;;;19.40;70.60;;;;;;5157757;27;20014;-75
2021/08/20 07:27:58;;;;;;;2.38;1.73;;;19.40;70.40;;;;;;5138999;27;20022;-74
2021/08/20 07:30:24;;;;;;;4.45;2.03;;;19.50;70.30;;;;;;5157454;27;20015;-73
2021/08/20 07:32:50;;;;;;;4.55;1.80;;;19.70;70.00;;;;;;5157454;27;20452;-73
2021/08/20 07:35:16;;;;;;;3.22;2.03;;;19.80;68.60;;;;;;5157427;27;20019;-74
2021/08/20 07:37:41;;;;;;;5.18;2.65;;;19.90;68.70;;;;;;5157589;27;20114;-73
2021/08/20 07:40:08;;;;;;;4.03;2.38;;;19.80;68.80;;;;;;5157334;27;20071;-73
2021/08/20 07:42:34;;;;;;;3.85;2.53;;;20.00;68.20;;;;;;5157022;27;20031;-72
2021/08/20 07:45:00;;;;;;;5.28;3.30;;;20.10;68.20;;;;;;5156956;27;20026;-74
2021/08/20 07:47:26;;;;;;;8.25;3.65;;;20.20;68.00;;;;;;5155483;27;20016;-73
2021/08/20 07:49:52;;;;;;;5.65;3.60;;;20.30;67.00;;;;;;5157121;27;20034;-74
2021/08/20 07:52:18;;;;;;;5.97;3.20;;;20.40;67.10;;;;;;5157000;27;20039;-74
2021/08/20 07:54:43;;;;;;;8.48;3.28;;;20.30;67.40;;;;;;5157239;27;20356;-74
2021/08/20 07:57:09;;;;;;;4.18;2.85;;;20.60;67.50;;;;;;5138368;27;20368;-73
2021/08/20 07:59:34;;;;;;;4.18;2.55;;;20.90;66.70;;;;;;5156938;27;20068;-75
2021/08/20 08:02:00;;;;;;;3.53;2.53;;;21.20;64.80;;;;;;5156820;27;20098;-74
2021/08/20 08:04:25;;;;;;;3.35;2.08;;;21.30;63.00;;;;;;5156575;27;20038;-75
2021/08/20 08:06:51;;;;;;;4.82;2.85;;;21.00;62.60;;;;;;5156697;27;20067;-74
2021/08/20 08:09:17;;;;;;;6.50;2.53;;;20.50;65.00;;;;;;5156518;27;20054;-74
2021/08/20 08:11:42;;;;;;;3.40;2.33;;;20.40;66.10;;;;;;5156791;27;20090;-74
2021/08/20 08:14:08;;;;;;;2.85;1.98;;;20.40;67.40;;;;;;5137858;27;20018;-73
2021/08/20 08:16:36;;;;;;;4.85;2.58;;;20.40;65.60;;;;;;5156395;27;20027;-73
2021/08/20 08:19:04;;;;;;;3.88;1.80;;;20.40;66.70;;;;;;5167081;27;20141;-74
2021/08/20 08:21:30;;;;;;;3.40;2.05;;;20.60;66.40;;;;;;5163985;27;20079;-73
2021/08/20 08:23:56;;;;;;;2.78;1.77;;;20.70;66.00;;;;;;5159577;27;20018;-74
2021/08/20 08:26:23;;;;;;;3.10;1.65;;;20.70;65.80;;;;;;5138075;27;20023;-75
2021/08/20 08:28:49;;;;;;;3.90;2.20;;;20.70;65.00;;;;;;5156596;27;20106;-75
2021/08/20 08:31:15;;;;;;;2.30;1.48;;;21.00;64.40;;;;;;5156171;27;20019;-74
2021/08/20 08:33:41;;;;;;;3.78;1.98;;;21.00;64.60;;;;;;5156166;27;20075;-75
2021/08/20 08:36:06;;;;;;;3.63;1.65;;;21.40;63.20;;;;;;5156026;27;20034;-74
2021/08/20 08:38:32;;;;;;;4.60;2.33;;;21.40;62.70;;;;;;5155902;27;20482;-73
2021/08/20 08:40:57;;;;;;;3.38;1.50;;;21.60;62.10;;;;;;5155831;27;20014;-73
2021/08/20 08:43:23;;;;;;;3.40;1.77;;;21.60;61.70;;;;;;5155761;27;20023;-73
2021/08/20 08:45:49;;;;;;;3.65;2.20;;;21.40;60.60;;;;;;5155944;27;20019;-73
2021/08/20 08:48:15;;;;;;;3.60;2.00;;;21.20;61.80;;;;;;5158641;27;20029;-76
2021/08/20 08:50:45;;;;;;;3.20;1.45;;;21.00;62.20;;;;;;5156019;27;20050;-73
2021/08/20 08:53:11;;;;;;;2.78;1.63;;;21.00;62.60;;;;;;5155892;27;20054;-75
2021/08/20 08:55:37;;;;;;;2.35;1.65;;;21.30;63.40;;;;;;5155720;27;20023;-75
2021/08/20 08:58:07;;;;;;;1.38;1.25;;;21.60;61.40;;;;;;5157976;27;20406;-75
2021/08/20 09:00:37;;;;;;;1.60;1.35;;;22.00;59.80;;;;;;5141799;27;20022;-75
2021/08/20 09:03:04;;;;;;;3.50;1.80;;;22.20;58.60;;;;;;5159980;27;20018;-76
2021/08/20 09:05:45;;;;;;;1.90;1.30;;;22.20;57.00;;;;;;5157434;27;20471;-75
2021/08/20 09:08:12;;;;;;;1.90;1.80;;;22.40;57.30;;;;;;5153329;27;20419;-75
2021/08/20 09:10:50;;;;;;;4.78;1.95;;;22.60;57.00;;;;;;5155485;27;20022;-75
2021/08/20 09:13:16;;;;;;;2.65;2.08;;;22.40;56.10;;;;;;5155353;27;20037;-75
2021/08/20 09:15:41;;;;;;;2.38;1.55;;;21.80;58.10;;;;;;5155718;27;20029;-75
2021/08/20 09:18:07;;;;;;;2.00;1.65;;;21.70;57.50;;;;;;5156158;27;20031;-75
2021/08/20 09:20:34;;;;;;;2.55;1.50;;;22.00;57.60;;;;;;5157585;27;20082;-76
2021/08/20 09:23:02;;;;;;;2.20;1.65;;;22.20;55.60;;;;;;5155345;27;20083;-75
2021/08/20 09:25:48;;;;;;;2.80;1.73;;;22.20;55.80;;;;;;5155032;27;20018;-75
2021/08/20 09:28:34;;;;;;;3.92;2.03;;;22.40;55.90;;;;;;5154792;27;20495;-76
2021/08/20 09:30:59;;;;;;;4.22;1.65;;;22.20;56.70;;;;;;5155208;27;20374;-75
2021/08/20 09:33:28;;;;;;;3.63;1.85;;;22.20;55.20;;;;;;5154950;27;20019;-75
2021/08/20 09:36:09;;;;;;;4.00;1.55;;;22.40;55.50;;;;;;5136151;27;20513;-75
2021/08/20 09:38:45;;;;;;;2.80;1.80;;;22.70;54.10;;;;;;5154572;27;20042;-77
2021/08/20 09:41:14;;;;;;;2.53;1.90;;;22.90;53.00;;;;;;5154852;27;20015;-73
2021/08/20 09:43:41;;;;;;;2.88;1.90;;;23.10;53.40;;;;;;5154532;27;20022;-73
2021/08/20 09:46:13;;;;;;;2.03;1.38;;;23.40;51.10;;;;;;5154453;27;20026;-73
2021/08/20 09:48:50;;;;;;;4.00;1.90;;;23.70;50.90;;;;;;5135845;27;20019;-73
2021/08/20 09:51:31;;;;;;;3.17;1.77;;;24.20;49.70;;;;;;5154580;27;20459;-73
2021/08/20 09:53:58;;;;;;;2.55;1.63;;;24.20;48.10;;;;;;5154438;27;20099;-74
2021/08/20 09:56:28;;;;;;;1.70;1.40;;;24.20;49.20;;;;;;5154356;27;20025;-74
2021/08/20 09:58:56;;;;;;;2.20;1.25;;;24.40;49.80;;;;;;5135548;27;20055;-74
2021/08/20 10:01:23;;;;;;;2.50;1.55;;;24.60;48.70;;;;;;5154244;27;20022;-74
2021/08/20 10:03:50;;;;;;;4.57;1.58;;;24.90;48.50;;;;;;5135267;27;20026;-73
2021/08/20 10:06:16;;;;;;;2.00;1.80;;;24.70;47.00;;;;;;5154162;27;20019;-73
2021/08/20 10:08:43;;;;;;;4.10;2.10;;;24.10;47.50;;;;;;5153770;27;20027;-74
2021/08/20 10:11:10;;;;;;;4.70;2.17;;;23.80;49.10;;;;;;5153550;27;20015;-73
2021/08/20 10:13:36;;;;;;;2.00;1.80;;;23.70;48.60;;;;;;5153844;27;20110;-74
2021/08/20 10:16:03;;;;;;;2.28;1.40;;;23.50;48.60;;;;;;5154000;27;20019;-74
2021/08/20 10:18:32;;;;;;;2.22;1.65;;;23.40;49.20;;;;;;5153763;27;20041;-74
2021/08/20 10:20:58;;;;;;;3.35;2.03;;;23.50;48.10;;;;;;5153892;27;20111;-74
2021/08/20 10:23:24;;;;;;;2.03;1.70;;;23.60;46.40;;;;;;5153269;27;20031;-74
2021/08/20 10:25:54;;;;;;;2.33;1.60;;;23.60;47.20;;;;;;5153675;27;20014;-74
2021/08/20 10:28:20;;;;;;;2.90;1.77;;;23.50;45.80;;;;;;5153682;27;20019;-74
2021/08/20 10:30:47;;;;;;;4.30;1.85;;;23.60;45.40;;;;;;5153801;27;20153;-73
2021/08/20 10:33:12;;;;;;;2.92;1.80;;;23.70;44.70;;;;;;5153663;27;20072;-74
2021/08/20 10:35:55;;;;;;;2.85;1.70;;;23.70;45.70;;;;;;5153939;27;20019;-73
2021/08/20 10:38:42;;;;;;;3.55;1.70;;;24.10;45.00;;;;;;5154206;27;20043;-73
2021/08/20 10:41:13;;;;;;;1.65;1.52;;;24.30;45.00;;;;;;5153813;27;20011;-73
2021/08/20 10:44:04;;;;;;;3.50;1.88;;;24.70;44.60;;;;;;5154150;27;20019;-74
2021/08/20 10:46:33;;;;;;;3.47;2.10;;;24.80;42.60;;;;;;5153807;27;20102;-74
2021/08/20 10:51:51;;;;;;;2.60;2.00;;;24.10;43.90;;;;;;5153725;27;20031;-74
2021/08/20 10:54:40;;;;;;;2.83;1.70;;;24.60;44.00;;;;;;5153827;27;20023;-74
2021/08/20 10:57:07;;;;;;;2.33;1.85;;;25.00;42.10;;;;;;5153640;27;20026;-74
2021/08/20 10:59:45;;;;;;;2.55;1.83;;;25.00;42.10;;;;;;5153743;27;20039;-74
2021/08/20 11:02:23;;;;;;;2.10;1.80;;;24.90;42.90;;;;;;5153764;27;20142;-73
2021/08/20 11:05:03;;;;;;;4.20;1.52;;;24.90;44.30;;;;;;5153767;27;20374;-74
2021/08/20 11:07:37;;;;;;;2.45;1.77;;;25.00;42.90;;;;;;5154236;27;20041;-74
2021/08/20 11:10:09;;;;;;;2.70;1.90;;;24.90;43.10;;;;;;5153607;27;20027;-74
2021/08/20 11:12:38;;;;;;;2.45;1.73;;;24.80;42.60;;;;;;5153644;27;20424;-75
2021/08/20 11:15:25;;;;;;;4.65;1.83;;;25.00;43.50;;;;;;5153583;27;20519;-76
2021/08/20 11:17:59;;;;;;;4.57;1.90;;;25.20;43.60;;;;;;5155110;27;20416;-75
2021/08/20 11:20:37;;;;;;;2.15;1.58;;;25.40;42.30;;;;;;5154416;27;20118;-74
2021/08/20 11:23:23;;;;;;;2.60;1.77;;;25.70;41.30;;;;;;5157317;27;20030;-75
2021/08/20 11:25:53;;;;;;;4.68;2.00;;;26.10;40.80;;;;;;5157505;27;20370;-74
2021/08/20 11:28:32;;;;;;;2.92;2.03;;;26.20;40.30;;;;;;5157378;27;20484;-76
2021/08/20 11:31:08;;;;;;;1.83;1.63;;;26.30;39.10;;;;;;5157450;27;20023;-74
2021/08/20 11:33:44;;;;;;;2.33;1.75;;;26.40;38.50;;;;;;5157643;27;20026;-75
2021/08/20 11:36:13;;;;;;;1.50;1.40;;;26.50;37.90;;;;;;5157224;27;20022;-76
2021/08/20 11:38:42;;;;;;;3.08;2.00;;;26.70;37.60;;;;;;5157317;27;20478;-73
2021/08/20 11:41:44;;;;;;;2.83;2.47;;;27.00;38.20;;;;;;5162379;27;20467;-76
2021/08/20 11:44:14;;;;;;;2.15;1.95;;;27.20;37.90;;;;;;5160548;27;20022;-74
2021/08/20 11:46:42;;;;;;;2.10;1.85;;;27.50;37.20;;;;;;5157124;27;20025;-74
2021/08/20 11:49:09;;;;;;;2.55;2.00;;;27.80;36.40;;;;;;5157049;27;20015;-75
2021/08/20 11:51:40;;;;;;;3.65;1.65;;;28.10;35.90;;;;;;5156846;27;20093;-74
2021/08/20 11:54:12;;;;;;;3.42;1.95;;;28.00;35.00;;;;;;5156679;27;20384;-74
2021/08/20 11:56:49;;;;;;;2.80;2.13;;;27.80;35.20;;;;;;5156944;27;20019;-75
2021/08/20 11:59:15;;;;;;;4.95;2.03;;;27.90;35.20;;;;;;5156573;27;20039;-74
2021/08/20 12:01:41;;;;;;;2.00;1.80;;;28.00;35.50;;;;;;5156594;27;20015;-74
2021/08/20 12:04:08;;;;;;;3.75;1.65;;;28.00;35.60;;;;;;5156627;27;20030;-75
2021/08/20 12:06:35;;;;;;;5.18;1.90;;;28.10;35.00;;;;;;5156607;27;20019;-75
2021/08/20 12:09:18;;;;;;;2.88;2.35;;;28.30;34.70;;;;;;5156600;27;20085;-75
2021/08/20 12:11:52;;;;;;;2.70;1.70;;;28.50;34.40;;;;;;5156802;27;20489;-75
2021/08/20 12:14:19;;;;;;;2.80;2.13;;;28.70;34.50;;;;;;5156509;27;20042;-75
2021/08/20 12:16:53;;;;;;;3.00;2.05;;;28.40;34.00;;;;;;5156516;27;20378;-74
2021/08/20 12:19:23;;;;;;;2.17;1.90;;;28.30;33.90;;;;;;5156271;27;20066;-76
2021/08/20 12:21:52;;;;;;;3.78;1.98;;;28.60;33.70;;;;;;5156343;27;20382;-75
2021/08/20 12:24:44;;;;;;;2.97;2.30;;;28.50;33.10;;;;;;5156151;27;20027;-77
2021/08/20 12:27:26;;;;;;;2.35;1.90;;;28.20;33.30;;;;;;5155875;27;20054;-74
2021/08/20 12:29:58;;;;;;;2.92;2.00;;;28.00;32.70;;;;;;5155978;27;20049;-74
2021/08/20 12:32:24;;;;;;;3.35;2.20;;;27.90;33.00;;;;;;5155295;27;20095;-75
2021/08/20 12:35:04;;;;;;;4.25;1.98;;;27.60;34.10;;;;;;5155994;27;20030;-74
2021/08/20 12:37:30;;;;;;;2.13;1.92;;;27.90;34.40;;;;;;5155579;27;20503;-75
2021/08/20 12:40:07;;;;;;;3.90;1.90;;;28.20;34.20;;;;;;5155480;27;20018;-74
2021/08/20 12:42:33;;;;;;;2.95;1.70;;;28.20;34.30;;;;;;5155559;27;20030;-74
2021/08/20 12:45:20;;;;;;;3.85;2.05;;;28.20;34.00;;;;;;5155492;27;20026;-74
2021/08/20 12:48:09;;;;;;;3.13;2.17;;;28.30;33.10;;;;;;5155603;27;20022;-75
2021/08/20 12:50:37;;;;;;;3.80;2.22;;;28.20;33.00;;;;;;5155714;27;20015;-74
2021/08/20 12:53:06;;;;;;;2.00;1.90;;;28.40;33.70;;;;;;5155423;27;20045;-74
2021/08/20 12:55:43;;;;;;;3.58;1.95;;;28.70;33.10;;;;;;5155457;27;20023;-74